sensor_id;sensor_type;location;lat;lon;timestamp;P1;durP1;ratioP1;P2;durP2;ratioP2
15218;SDS011;15623;53.986;11.676;2023-08-21T00:00:38;6.10;;;4.32;;
15218;SDS011;15623;53.986;11.676;2023-08-21T00:03:06;6.20;;;4.70;;
15218;SDS011;15623;53.986;11.676;2023-08-21T00:05:33;7.38;;;4.20;;
15218;SDS011;15623;53.986;11.676;2023-08-21T00:08:01;8.15;;;4.70;;
15218;SDS011;15623;53.986;11.676;2023-08-21T00:10:29;9.82;;;3.92;;
15218;SDS011;15623;53.986;11.676;2023-08-21T00:12:59;6.45;;;3.65;;
15218;SDS011;15623;53.986;11.676;2023-08-21T00:15:26;4.75;;;3.67;;
15218;SDS011;15623;53.986;11.676;2023-08-21T00:17:54;6.32;;;4.00;;
15218;SDS011;15623;53.986;11.676;2023-08-21T00:20:21;7.68;;;4.10;;
15218;SDS011;15623;53.986;11.676;2023-08-21T00:22:50;6.95;;;4.10;;
15218;SDS011;15623;53.986;11.676;2023-08-21T00:25:31;5.40;;;3.72;;
15218;SDS011;15623;53.986;11.676;2023-08-21T00:28:05;5.88;;;3.72;;
15218;SDS011;15623;53.986;11.676;2023-08-21T00:30:33;6.78;;;3.80;;
15218;SDS011;15623;53.986;11.676;2023-08-21T00:33:01;7.15;;;3.78;;
15218;SDS011;15623;53.986;11.676;2023-08-21T00:35:28;6.85;;;3.83;;
15218;SDS011;15623;53.986;11.676;2023-08-21T00:37:56;5.88;;;4.00;;
15218;SDS011;15623;53.986;11.676;2023-08-21T00:40:25;5.65;;;3.85;;
15218;SDS011;15623;53.986;11.676;2023-08-21T00:42:53;6.60;;;4.50;;
15218;SDS011;15623;53.986;11.676;2023-08-21T00:48:07;10.90;;;4.88;;
15218;SDS011;15623;53.986;11.676;2023-08-21T00:50:35;9.55;;;4.80;;
15218;SDS011;15623;53.986;11.676;2023-08-21T00:53:05;5.68;;;4.30;;
15218;SDS011;15623;53.986;11.676;2023-08-21T00:55:35;6.68;;;4.00;;
15218;SDS011;15623;53.986;11.676;2023-08-21T00:58:09;5.95;;;4.63;;
15218;SDS011;15623;53.986;11.676;2023-08-21T01:00:43;6.05;;;5.20;;
15218;SDS011;15623;53.986;11.676;2023-08-21T01:03:19;6.63;;;4.95;;
15218;SDS011;15623;53.986;11.676;2023-08-21T01:05:49;7.45;;;4.65;;
15218;SDS011;15623;53.986;11.676;2023-08-21T01:08:19;7.82;;;5.10;;
15218;SDS011;15623;53.986;11.676;2023-08-21T01:10:50;8.48;;;5.00;;
15218;SDS011;15623;53.986;11.676;2023-08-21T01:13:24;5.70;;;4.30;;
15218;SDS011;15623;53.986;11.676;2023-08-21T01:16:02;7.65;;;4.28;;
15218;SDS011;15623;53.986;11.676;2023-08-21T01:18:32;5.22;;;4.20;;
15218;SDS011;15623;53.986;11.676;2023-08-21T01:21:01;8.43;;;4.05;;
15218;SDS011;15623;53.986;11.676;2023-08-21T01:23:34;5.57;;;3.88;;
15218;SDS011;15623;53.986;11.676;2023-08-21T01:26:02;7.28;;;4.50;;
15218;SDS011;15623;53.986;11.676;2023-08-21T01:28:30;7.07;;;4.63;;
15218;SDS011;15623;53.986;11.676;2023-08-21T01:30:59;4.78;;;4.30;;
15218;SDS011;15623;53.986;11.676;2023-08-21T01:33:27;7.63;;;4.70;;
15218;SDS011;15623;53.986;11.676;2023-08-21T01:35:57;5.03;;;4.50;;
15218;SDS011;15623;53.986;11.676;2023-08-21T01:38:25;8.50;;;4.30;;
15218;SDS011;15623;53.986;11.676;2023-08-21T01:40:54;8.88;;;4.40;;
15218;SDS011;15623;53.986;11.676;2023-08-21T01:43:22;5.45;;;4.18;;
15218;SDS011;15623;53.986;11.676;2023-08-21T01:45:49;5.18;;;4.10;;
15218;SDS011;15623;53.986;11.676;2023-08-21T01:48:17;9.20;;;5.10;;
15218;SDS011;15623;53.986;11.676;2023-08-21T01:50:45;6.82;;;4.40;;
15218;SDS011;15623;53.986;11.676;2023-08-21T01:53:14;6.28;;;4.82;;
15218;SDS011;15623;53.986;11.676;2023-08-21T01:55:41;5.85;;;4.43;;
15218;SDS011;15623;53.986;11.676;2023-08-21T01:58:10;7.03;;;4.53;;
15218;SDS011;15623;53.986;11.676;2023-08-21T02:00:38;5.53;;;4.97;;
15218;SDS011;15623;53.986;11.676;2023-08-21T02:03:05;7.97;;;5.13;;
15218;SDS011;15623;53.986;11.676;2023-08-21T02:05:37;8.13;;;4.85;;
15218;SDS011;15623;53.986;11.676;2023-08-21T02:08:05;6.68;;;4.90;;
15218;SDS011;15623;53.986;11.676;2023-08-21T02:10:33;6.80;;;5.38;;
15218;SDS011;15623;53.986;11.676;2023-08-21T02:13:03;5.53;;;5.03;;
15218;SDS011;15623;53.986;11.676;2023-08-21T02:15:33;8.00;;;5.70;;
15218;SDS011;15623;53.986;11.676;2023-08-21T02:18:01;7.47;;;5.57;;
15218;SDS011;15623;53.986;11.676;2023-08-21T02:20:28;6.93;;;6.03;;
15218;SDS011;15623;53.986;11.676;2023-08-21T02:22:57;7.13;;;6.03;;
15218;SDS011;15623;53.986;11.676;2023-08-21T02:25:24;11.15;;;5.97;;
15218;SDS011;15623;53.986;11.676;2023-08-21T02:27:52;9.48;;;6.57;;
15218;SDS011;15623;53.986;11.676;2023-08-21T02:30:20;7.72;;;6.68;;
15218;SDS011;15623;53.986;11.676;2023-08-21T02:32:51;10.15;;;6.95;;
15218;SDS011;15623;53.986;11.676;2023-08-21T02:35:19;10.60;;;6.60;;
15218;SDS011;15623;53.986;11.676;2023-08-21T02:37:51;8.65;;;6.55;;
15218;SDS011;15623;53.986;11.676;2023-08-21T02:40:19;10.10;;;6.53;;
15218;SDS011;15623;53.986;11.676;2023-08-21T02:42:46;10.15;;;7.00;;
15218;SDS011;15623;53.986;11.676;2023-08-21T02:45:13;7.70;;;6.68;;
15218;SDS011;15623;53.986;11.676;2023-08-21T02:47:41;7.03;;;6.43;;
15218;SDS011;15623;53.986;11.676;2023-08-21T02:50:11;8.55;;;7.07;;
15218;SDS011;15623;53.986;11.676;2023-08-21T02:52:39;7.13;;;6.22;;
15218;SDS011;15623;53.986;11.676;2023-08-21T02:55:20;7.13;;;6.25;;
15218;SDS011;15623;53.986;11.676;2023-08-21T02:57:48;9.80;;;7.07;;
15218;SDS011;15623;53.986;11.676;2023-08-21T03:00:19;12.18;;;6.97;;
15218;SDS011;15623;53.986;11.676;2023-08-21T03:02:47;9.02;;;7.45;;
15218;SDS011;15623;53.986;11.676;2023-08-21T03:05:16;9.65;;;7.88;;
15218;SDS011;15623;53.986;11.676;2023-08-21T03:07:44;8.90;;;7.97;;
15218;SDS011;15623;53.986;11.676;2023-08-21T03:10:11;11.10;;;7.70;;
15218;SDS011;15623;53.986;11.676;2023-08-21T03:12:38;8.82;;;7.68;;
15218;SDS011;15623;53.986;11.676;2023-08-21T03:15:06;10.27;;;8.10;;
15218;SDS011;15623;53.986;11.676;2023-08-21T03:17:34;8.98;;;7.50;;
15218;SDS011;15623;53.986;11.676;2023-08-21T03:20:01;7.97;;;7.38;;
15218;SDS011;15623;53.986;11.676;2023-08-21T03:22:31;9.60;;;7.93;;
15218;SDS011;15623;53.986;11.676;2023-08-21T03:24:58;11.85;;;7.78;;
15218;SDS011;15623;53.986;11.676;2023-08-21T03:27:26;11.18;;;7.57;;
15218;SDS011;15623;53.986;11.676;2023-08-21T03:29:53;11.02;;;7.22;;
15218;SDS011;15623;53.986;11.676;2023-08-21T03:32:20;10.50;;;7.60;;
15218;SDS011;15623;53.986;11.676;2023-08-21T03:34:48;9.60;;;7.22;;
15218;SDS011;15623;53.986;11.676;2023-08-21T03:37:15;9.93;;;8.07;;
15218;SDS011;15623;53.986;11.676;2023-08-21T03:39:44;11.23;;;7.07;;
15218;SDS011;15623;53.986;11.676;2023-08-21T03:42:12;10.65;;;7.57;;
15218;SDS011;15623;53.986;11.676;2023-08-21T03:44:39;9.30;;;7.20;;
15218;SDS011;15623;53.986;11.676;2023-08-21T03:47:07;13.80;;;7.45;;
15218;SDS011;15623;53.986;11.676;2023-08-21T03:49:35;10.20;;;6.57;;
15218;SDS011;15623;53.986;11.676;2023-08-21T03:52:03;8.68;;;6.35;;
15218;SDS011;15623;53.986;11.676;2023-08-21T03:54:33;10.60;;;6.28;;
15218;SDS011;15623;53.986;11.676;2023-08-21T03:57:03;11.13;;;6.60;;
15218;SDS011;15623;53.986;11.676;2023-08-21T03:59:32;7.80;;;6.70;;
15218;SDS011;15623;53.986;11.676;2023-08-21T04:02:01;7.45;;;6.63;;
15218;SDS011;15623;53.986;11.676;2023-08-21T04:04:32;8.98;;;6.55;;
15218;SDS011;15623;53.986;11.676;2023-08-21T04:07:00;8.40;;;5.95;;
15218;SDS011;15623;53.986;11.676;2023-08-21T04:09:27;11.85;;;6.28;;
15218;SDS011;15623;53.986;11.676;2023-08-21T04:11:55;9.20;;;5.85;;
15218;SDS011;15623;53.986;11.676;2023-08-21T04:14:24;11.02;;;5.63;;
15218;SDS011;15623;53.986;11.676;2023-08-21T04:16:51;8.05;;;5.90;;
15218;SDS011;15623;53.986;11.676;2023-08-21T04:19:19;9.30;;;5.82;;
15218;SDS011;15623;53.986;11.676;2023-08-21T04:21:47;8.30;;;6.07;;
15218;SDS011;15623;53.986;11.676;2023-08-21T04:24:14;8.15;;;5.80;;
15218;SDS011;15623;53.986;11.676;2023-08-21T04:26:42;10.27;;;5.90;;
15218;SDS011;15623;53.986;11.676;2023-08-21T04:29:09;9.70;;;5.63;;
15218;SDS011;15623;53.986;11.676;2023-08-21T04:31:38;7.32;;;5.50;;
15218;SDS011;15623;53.986;11.676;2023-08-21T04:34:05;8.45;;;5.72;;
15218;SDS011;15623;53.986;11.676;2023-08-21T04:36:33;9.75;;;5.55;;
15218;SDS011;15623;53.986;11.676;2023-08-21T04:39:00;9.50;;;5.88;;
15218;SDS011;15623;53.986;11.676;2023-08-21T04:41:28;9.60;;;6.45;;
15218;SDS011;15623;53.986;11.676;2023-08-21T04:43:55;11.10;;;6.68;;
15218;SDS011;15623;53.986;11.676;2023-08-21T04:46:22;9.07;;;6.95;;
15218;SDS011;15623;53.986;11.676;2023-08-21T04:48:51;7.90;;;6.00;;
15218;SDS011;15623;53.986;11.676;2023-08-21T04:51:18;9.75;;;6.18;;
15218;SDS011;15623;53.986;11.676;2023-08-21T04:53:46;12.52;;;6.18;;
15218;SDS011;15623;53.986;11.676;2023-08-21T04:56:14;14.38;;;6.43;;
15218;SDS011;15623;53.986;11.676;2023-08-21T04:58:51;8.05;;;5.97;;
15218;SDS011;15623;53.986;11.676;2023-08-21T05:01:20;9.43;;;5.28;;
15218;SDS011;15623;53.986;11.676;2023-08-21T05:04:02;8.30;;;5.55;;
15218;SDS011;15623;53.986;11.676;2023-08-21T05:06:53;6.88;;;5.43;;
15218;SDS011;15623;53.986;11.676;2023-08-21T05:09:58;8.13;;;5.65;;
15218;SDS011;15623;53.986;11.676;2023-08-21T05:12:26;7.75;;;5.13;;
15218;SDS011;15623;53.986;11.676;2023-08-21T05:14:55;7.68;;;5.18;;
15218;SDS011;15623;53.986;11.676;2023-08-21T05:17:23;10.02;;;5.20;;
15218;SDS011;15623;53.986;11.676;2023-08-21T05:22:51;5.80;;;4.78;;
15218;SDS011;15623;53.986;11.676;2023-08-21T05:25:18;7.55;;;4.72;;
15218;SDS011;15623;53.986;11.676;2023-08-21T05:27:46;5.93;;;4.25;;
15218;SDS011;15623;53.986;11.676;2023-08-21T05:30:13;5.75;;;4.30;;
15218;SDS011;15623;53.986;11.676;2023-08-21T05:32:41;8.45;;;4.45;;
15218;SDS011;15623;53.986;11.676;2023-08-21T05:35:08;6.28;;;4.85;;
15218;SDS011;15623;53.986;11.676;2023-08-21T05:37:36;7.57;;;4.63;;
15218;SDS011;15623;53.986;11.676;2023-08-21T05:40:05;7.15;;;4.45;;
15218;SDS011;15623;53.986;11.676;2023-08-21T05:42:33;10.80;;;4.78;;
15218;SDS011;15623;53.986;11.676;2023-08-21T05:45:01;5.80;;;4.25;;
15218;SDS011;15623;53.986;11.676;2023-08-21T05:47:28;6.82;;;3.80;;
15218;SDS011;15623;53.986;11.676;2023-08-21T05:49:56;5.95;;;3.95;;
15218;SDS011;15623;53.986;11.676;2023-08-21T05:52:35;6.85;;;3.25;;
15218;SDS011;15623;53.986;11.676;2023-08-21T05:55:09;10.38;;;3.85;;
15218;SDS011;15623;53.986;11.676;2023-08-21T05:57:37;7.00;;;3.33;;
15218;SDS011;15623;53.986;11.676;2023-08-21T06:00:05;7.97;;;2.92;;
15218;SDS011;15623;53.986;11.676;2023-08-21T06:02:34;5.32;;;2.80;;
15218;SDS011;15623;53.986;11.676;2023-08-21T06:05:04;5.63;;;2.83;;
15218;SDS011;15623;53.986;11.676;2023-08-21T06:07:32;4.13;;;2.40;;
15218;SDS011;15623;53.986;11.676;2023-08-21T06:09:59;4.78;;;2.70;;
15218;SDS011;15623;53.986;11.676;2023-08-21T06:12:28;4.82;;;2.55;;
15218;SDS011;15623;53.986;11.676;2023-08-21T06:14:56;6.97;;;2.70;;
15218;SDS011;15623;53.986;11.676;2023-08-21T06:17:23;7.53;;;2.72;;
15218;SDS011;15623;53.986;11.676;2023-08-21T06:19:50;4.25;;;2.85;;
15218;SDS011;15623;53.986;11.676;2023-08-21T06:22:18;6.57;;;3.00;;
15218;SDS011;15623;53.986;11.676;2023-08-21T06:24:45;6.75;;;3.20;;
15218;SDS011;15623;53.986;11.676;2023-08-21T06:27:13;6.35;;;3.95;;
15218;SDS011;15623;53.986;11.676;2023-08-21T06:29:42;6.65;;;4.70;;
15218;SDS011;15623;53.986;11.676;2023-08-21T06:32:09;9.00;;;4.47;;
15218;SDS011;15623;53.986;11.676;2023-08-21T06:34:37;6.03;;;4.70;;
15218;SDS011;15623;53.986;11.676;2023-08-21T06:39:35;6.78;;;5.15;;
15218;SDS011;15623;53.986;11.676;2023-08-21T06:42:02;5.80;;;4.68;;
15218;SDS011;15623;53.986;11.676;2023-08-21T06:44:30;7.20;;;5.10;;
15218;SDS011;15623;53.986;11.676;2023-08-21T06:46:59;5.10;;;4.68;;
15218;SDS011;15623;53.986;11.676;2023-08-21T06:49:32;5.38;;;4.88;;
15218;SDS011;15623;53.986;11.676;2023-08-21T06:52:09;5.10;;;4.60;;
15218;SDS011;15623;53.986;11.676;2023-08-21T06:54:36;6.13;;;4.95;;
15218;SDS011;15623;53.986;11.676;2023-08-21T06:57:06;7.63;;;4.38;;
15218;SDS011;15623;53.986;11.676;2023-08-21T06:59:34;6.10;;;4.50;;
15218;SDS011;15623;53.986;11.676;2023-08-21T07:02:03;5.95;;;4.57;;
15218;SDS011;15623;53.986;11.676;2023-08-21T07:04:30;5.00;;;4.45;;
15218;SDS011;15623;53.986;11.676;2023-08-21T07:06:58;4.78;;;4.10;;
15218;SDS011;15623;53.986;11.676;2023-08-21T07:09:25;5.85;;;4.47;;
15218;SDS011;15623;53.986;11.676;2023-08-21T07:11:53;5.75;;;3.90;;
15218;SDS011;15623;53.986;11.676;2023-08-21T07:14:20;5.60;;;4.13;;
15218;SDS011;15623;53.986;11.676;2023-08-21T07:16:47;4.97;;;3.63;;
15218;SDS011;15623;53.986;11.676;2023-08-21T07:19:18;6.07;;;3.80;;
15218;SDS011;15623;53.986;11.676;2023-08-21T07:21:45;5.88;;;4.07;;
15218;SDS011;15623;53.986;11.676;2023-08-21T07:24:12;6.07;;;3.72;;
15218;SDS011;15623;53.986;11.676;2023-08-21T07:26:40;4.68;;;4.25;;
15218;SDS011;15623;53.986;11.676;2023-08-21T07:29:07;5.03;;;3.20;;
15218;SDS011;15623;53.986;11.676;2023-08-21T07:31:35;3.47;;;3.17;;
15218;SDS011;15623;53.986;11.676;2023-08-21T07:34:02;5.32;;;3.40;;
15218;SDS011;15623;53.986;11.676;2023-08-21T07:36:32;4.05;;;3.00;;
15218;SDS011;15623;53.986;11.676;2023-08-21T07:39:00;4.80;;;2.60;;
15218;SDS011;15623;53.986;11.676;2023-08-21T07:41:27;4.45;;;3.22;;
15218;SDS011;15623;53.986;11.676;2023-08-21T07:43:54;3.67;;;2.70;;
15218;SDS011;15623;53.986;11.676;2023-08-21T07:46:22;5.05;;;2.90;;
15218;SDS011;15623;53.986;11.676;2023-08-21T07:48:55;4.07;;;3.00;;
15218;SDS011;15623;53.986;11.676;2023-08-21T07:51:22;4.85;;;3.50;;
15218;SDS011;15623;53.986;11.676;2023-08-21T07:53:51;3.70;;;3.33;;
15218;SDS011;15623;53.986;11.676;2023-08-21T07:56:19;5.18;;;3.40;;
15218;SDS011;15623;53.986;11.676;2023-08-21T07:58:46;3.70;;;3.33;;
15218;SDS011;15623;53.986;11.676;2023-08-21T08:01:18;5.72;;;3.70;;
15218;SDS011;15623;53.986;11.676;2023-08-21T08:03:47;3.60;;;3.30;;
15218;SDS011;15623;53.986;11.676;2023-08-21T08:06:15;5.85;;;3.67;;
15218;SDS011;15623;53.986;11.676;2023-08-21T08:08:43;4.55;;;3.70;;
15218;SDS011;15623;53.986;11.676;2023-08-21T08:11:13;4.60;;;3.33;;
15218;SDS011;15623;53.986;11.676;2023-08-21T08:13:40;5.70;;;3.45;;
15218;SDS011;15623;53.986;11.676;2023-08-21T08:16:07;3.70;;;3.40;;
15218;SDS011;15623;53.986;11.676;2023-08-21T08:18:35;5.40;;;3.65;;
15218;SDS011;15623;53.986;11.676;2023-08-21T08:21:02;4.80;;;3.17;;
15218;SDS011;15623;53.986;11.676;2023-08-21T08:23:29;3.65;;;3.00;;
15218;SDS011;15623;53.986;11.676;2023-08-21T08:25:57;3.53;;;3.20;;
15218;SDS011;15623;53.986;11.676;2023-08-21T08:28:25;3.88;;;2.83;;
15218;SDS011;15623;53.986;11.676;2023-08-21T08:30:53;3.60;;;3.13;;
15218;SDS011;15623;53.986;11.676;2023-08-21T08:33:21;4.15;;;2.75;;
15218;SDS011;15623;53.986;11.676;2023-08-21T08:35:48;3.72;;;2.60;;
15218;SDS011;15623;53.986;11.676;2023-08-21T08:38:15;5.43;;;3.25;;
15218;SDS011;15623;53.986;11.676;2023-08-21T08:40:44;3.30;;;2.60;;
15218;SDS011;15623;53.986;11.676;2023-08-21T08:43:12;4.80;;;3.00;;
15218;SDS011;15623;53.986;11.676;2023-08-21T08:45:41;4.20;;;3.10;;
15218;SDS011;15623;53.986;11.676;2023-08-21T08:48:11;5.20;;;2.90;;
15218;SDS011;15623;53.986;11.676;2023-08-21T08:50:39;6.63;;;2.70;;
15218;SDS011;15623;53.986;11.676;2023-08-21T08:53:07;4.35;;;2.63;;
15218;SDS011;15623;53.986;11.676;2023-08-21T08:55:36;3.28;;;2.47;;
15218;SDS011;15623;53.986;11.676;2023-08-21T08:58:04;3.95;;;2.58;;
15218;SDS011;15623;53.986;11.676;2023-08-21T09:00:31;4.32;;;2.20;;
15218;SDS011;15623;53.986;11.676;2023-08-21T09:03:00;3.92;;;2.42;;
15218;SDS011;15623;53.986;11.676;2023-08-21T09:05:28;4.30;;;2.42;;
15218;SDS011;15623;53.986;11.676;2023-08-21T09:08:02;3.13;;;2.40;;
15218;SDS011;15623;53.986;11.676;2023-08-21T09:10:30;2.47;;;2.28;;
15218;SDS011;15623;53.986;11.676;2023-08-21T09:12:59;2.83;;;2.42;;
15218;SDS011;15623;53.986;11.676;2023-08-21T09:15:27;6.57;;;2.65;;
15218;SDS011;15623;53.986;11.676;2023-08-21T09:17:57;2.90;;;2.28;;
15218;SDS011;15623;53.986;11.676;2023-08-21T09:20:26;3.05;;;2.00;;
15218;SDS011;15623;53.986;11.676;2023-08-21T09:22:54;3.55;;;1.80;;
15218;SDS011;15623;53.986;11.676;2023-08-21T09:25:22;4.28;;;2.10;;
15218;SDS011;15623;53.986;11.676;2023-08-21T09:27:51;3.50;;;2.28;;
15218;SDS011;15623;53.986;11.676;2023-08-21T09:30:19;3.83;;;2.00;;
15218;SDS011;15623;53.986;11.676;2023-08-21T09:32:55;2.25;;;1.80;;
15218;SDS011;15623;53.986;11.676;2023-08-21T09:35:26;4.63;;;1.67;;
15218;SDS011;15623;53.986;11.676;2023-08-21T09:37:54;3.17;;;1.98;;
15218;SDS011;15623;53.986;11.676;2023-08-21T09:40:21;3.05;;;1.90;;
15218;SDS011;15623;53.986;11.676;2023-08-21T09:42:51;2.42;;;1.63;;
15218;SDS011;15623;53.986;11.676;2023-08-21T09:45:20;2.40;;;2.00;;
15218;SDS011;15623;53.986;11.676;2023-08-21T09:47:47;2.15;;;1.73;;
15218;SDS011;15623;53.986;11.676;2023-08-21T09:50:15;2.10;;;1.60;;
15218;SDS011;15623;53.986;11.676;2023-08-21T09:52:44;3.10;;;2.17;;
15218;SDS011;15623;53.986;11.676;2023-08-21T09:55:12;4.88;;;2.40;;
15218;SDS011;15623;53.986;11.676;2023-08-21T09:57:40;4.65;;;2.13;;
15218;SDS011;15623;53.986;11.676;2023-08-21T10:00:08;2.80;;;1.92;;
15218;SDS011;15623;53.986;11.676;2023-08-21T10:02:40;4.07;;;2.42;;
15218;SDS011;15623;53.986;11.676;2023-08-21T10:05:11;4.72;;;2.30;;
15218;SDS011;15623;53.986;11.676;2023-08-21T10:07:39;3.45;;;2.40;;
15218;SDS011;15623;53.986;11.676;2023-08-21T10:10:08;4.85;;;2.33;;
15218;SDS011;15623;53.986;11.676;2023-08-21T10:12:36;6.07;;;1.73;;
15218;SDS011;15623;53.986;11.676;2023-08-21T10:15:03;4.22;;;2.10;;
15218;SDS011;15623;53.986;11.676;2023-08-21T10:17:31;3.10;;;2.00;;
15218;SDS011;15623;53.986;11.676;2023-08-21T10:20:02;5.10;;;1.95;;
15218;SDS011;15623;53.986;11.676;2023-08-21T10:22:38;3.78;;;2.00;;
15218;SDS011;15623;53.986;11.676;2023-08-21T10:25:15;4.68;;;1.75;;
15218;SDS011;15623;53.986;11.676;2023-08-21T10:27:45;3.83;;;1.63;;
15218;SDS011;15623;53.986;11.676;2023-08-21T10:30:14;4.63;;;1.60;;
15218;SDS011;15623;53.986;11.676;2023-08-21T10:32:46;3.13;;;1.48;;
15218;SDS011;15623;53.986;11.676;2023-08-21T10:35:14;3.47;;;1.40;;
15218;SDS011;15623;53.986;11.676;2023-08-21T10:46:14;3.03;;;1.60;;
15218;SDS011;15623;53.986;11.676;2023-08-21T10:48:41;2.70;;;1.35;;
15218;SDS011;15623;53.986;11.676;2023-08-21T10:51:09;2.45;;;1.40;;
15218;SDS011;15623;53.986;11.676;2023-08-21T10:53:38;2.05;;;1.55;;
15218;SDS011;15623;53.986;11.676;2023-08-21T10:56:09;3.47;;;1.80;;
15218;SDS011;15623;53.986;11.676;2023-08-21T10:58:38;1.67;;;1.38;;
15218;SDS011;15623;53.986;11.676;2023-08-21T11:01:05;2.25;;;1.50;;
15218;SDS011;15623;53.986;11.676;2023-08-21T11:03:33;3.95;;;1.50;;
15218;SDS011;15623;53.986;11.676;2023-08-21T11:06:01;2.17;;;1.30;;
15218;SDS011;15623;53.986;11.676;2023-08-21T11:08:29;2.78;;;1.27;;
15218;SDS011;15623;53.986;11.676;2023-08-21T11:10:56;3.63;;;1.60;;
15218;SDS011;15623;53.986;11.676;2023-08-21T11:13:25;2.78;;;1.15;;
15218;SDS011;15623;53.986;11.676;2023-08-21T11:15:58;2.65;;;1.40;;
15218;SDS011;15623;53.986;11.676;2023-08-21T11:18:29;2.75;;;1.38;;
15218;SDS011;15623;53.986;11.676;2023-08-21T11:21:04;2.38;;;1.20;;
15218;SDS011;15623;53.986;11.676;2023-08-21T11:23:32;2.67;;;1.50;;
15218;SDS011;15623;53.986;11.676;2023-08-21T11:26:00;1.77;;;1.05;;
15218;SDS011;15623;53.986;11.676;2023-08-21T11:28:29;3.00;;;1.40;;
15218;SDS011;15623;53.986;11.676;2023-08-21T11:30:57;4.03;;;1.35;;
15218;SDS011;15623;53.986;11.676;2023-08-21T11:33:25;2.28;;;1.10;;
15218;SDS011;15623;53.986;11.676;2023-08-21T11:35:53;2.95;;;1.02;;
15218;SDS011;15623;53.986;11.676;2023-08-21T11:38:23;1.85;;;0.98;;
15218;SDS011;15623;53.986;11.676;2023-08-21T11:40:52;1.40;;;0.90;;
15218;SDS011;15623;53.986;11.676;2023-08-21T11:43:19;1.67;;;1.17;;
15218;SDS011;15623;53.986;11.676;2023-08-21T11:45:48;2.15;;;1.23;;
15218;SDS011;15623;53.986;11.676;2023-08-21T11:48:15;2.03;;;1.20;;
15218;SDS011;15623;53.986;11.676;2023-08-21T11:50:47;1.73;;;1.15;;
15218;SDS011;15623;53.986;11.676;2023-08-21T11:53:15;2.28;;;1.10;;
15218;SDS011;15623;53.986;11.676;2023-08-21T11:55:55;2.50;;;1.05;;
15218;SDS011;15623;53.986;11.676;2023-08-21T11:58:23;2.33;;;1.13;;
15218;SDS011;15623;53.986;11.676;2023-08-21T12:00:54;2.05;;;1.02;;
15218;SDS011;15623;53.986;11.676;2023-08-21T12:03:22;2.58;;;1.10;;
15218;SDS011;15623;53.986;11.676;2023-08-21T12:05:49;1.75;;;1.10;;
15218;SDS011;15623;53.986;11.676;2023-08-21T12:08:16;1.92;;;1.20;;
15218;SDS011;15623;53.986;11.676;2023-08-21T12:10:57;1.92;;;1.10;;
15218;SDS011;15623;53.986;11.676;2023-08-21T12:13:25;1.25;;;0.63;;
15218;SDS011;15623;53.986;11.676;2023-08-21T12:15:53;2.35;;;1.15;;
15218;SDS011;15623;53.986;11.676;2023-08-21T12:18:21;1.65;;;1.10;;
15218;SDS011;15623;53.986;11.676;2023-08-21T12:20:49;1.73;;;1.00;;
15218;SDS011;15623;53.986;11.676;2023-08-21T12:23:16;3.13;;;1.40;;
15218;SDS011;15623;53.986;11.676;2023-08-21T12:25:44;1.38;;;0.98;;
15218;SDS011;15623;53.986;11.676;2023-08-21T12:28:11;1.58;;;0.90;;
15218;SDS011;15623;53.986;11.676;2023-08-21T12:30:39;2.47;;;1.27;;
15218;SDS011;15623;53.986;11.676;2023-08-21T12:33:06;2.47;;;1.10;;
15218;SDS011;15623;53.986;11.676;2023-08-21T12:35:35;2.10;;;1.23;;
15218;SDS011;15623;53.986;11.676;2023-08-21T12:38:10;2.40;;;1.20;;
15218;SDS011;15623;53.986;11.676;2023-08-21T12:40:39;1.17;;;1.05;;
15218;SDS011;15623;53.986;11.676;2023-08-21T12:43:06;1.73;;;1.10;;
15218;SDS011;15623;53.986;11.676;2023-08-21T12:45:35;2.20;;;1.50;;
15218;SDS011;15623;53.986;11.676;2023-08-21T12:48:03;2.00;;;1.35;;
15218;SDS011;15623;53.986;11.676;2023-08-21T12:50:30;2.92;;;1.23;;
15218;SDS011;15623;53.986;11.676;2023-08-21T12:53:01;3.47;;;1.10;;
15218;SDS011;15623;53.986;11.676;2023-08-21T12:55:28;2.05;;;1.13;;
15218;SDS011;15623;53.986;11.676;2023-08-21T12:57:56;3.00;;;1.10;;
15218;SDS011;15623;53.986;11.676;2023-08-21T13:00:23;2.33;;;1.17;;
15218;SDS011;15623;53.986;11.676;2023-08-21T13:02:50;2.65;;;1.15;;
15218;SDS011;15623;53.986;11.676;2023-08-21T13:05:18;3.08;;;1.40;;
15218;SDS011;15623;53.986;11.676;2023-08-21T13:07:46;3.35;;;1.20;;
15218;SDS011;15623;53.986;11.676;2023-08-21T13:10:14;1.90;;;1.20;;
15218;SDS011;15623;53.986;11.676;2023-08-21T13:12:42;2.78;;;1.10;;
15218;SDS011;15623;53.986;11.676;2023-08-21T13:15:09;2.83;;;1.13;;
15218;SDS011;15623;53.986;11.676;2023-08-21T13:17:37;1.42;;;1.13;;
15218;SDS011;15623;53.986;11.676;2023-08-21T13:20:04;3.28;;;1.33;;
15218;SDS011;15623;53.986;11.676;2023-08-21T13:22:43;2.38;;;1.30;;
15218;SDS011;15623;53.986;11.676;2023-08-21T13:25:11;3.30;;;1.15;;
15218;SDS011;15623;53.986;11.676;2023-08-21T13:27:40;1.75;;;1.27;;
15218;SDS011;15623;53.986;11.676;2023-08-21T13:30:08;2.85;;;1.60;;
15218;SDS011;15623;53.986;11.676;2023-08-21T13:32:35;2.58;;;1.23;;
15218;SDS011;15623;53.986;11.676;2023-08-21T13:35:03;2.30;;;1.30;;
15218;SDS011;15623;53.986;11.676;2023-08-21T13:37:32;2.63;;;1.60;;
15218;SDS011;15623;53.986;11.676;2023-08-21T13:39:59;3.00;;;1.23;;
15218;SDS011;15623;53.986;11.676;2023-08-21T13:42:34;1.90;;;1.13;;
15218;SDS011;15623;53.986;11.676;2023-08-21T13:45:17;1.55;;;1.02;;
15218;SDS011;15623;53.986;11.676;2023-08-21T13:47:45;3.05;;;1.40;;
15218;SDS011;15623;53.986;11.676;2023-08-21T13:50:14;1.95;;;1.00;;
15218;SDS011;15623;53.986;11.676;2023-08-21T13:52:41;4.05;;;1.35;;
15218;SDS011;15623;53.986;11.676;2023-08-21T13:55:09;2.00;;;1.13;;
15218;SDS011;15623;53.986;11.676;2023-08-21T13:57:37;3.42;;;1.10;;
15218;SDS011;15623;53.986;11.676;2023-08-21T14:00:06;4.43;;;1.58;;
15218;SDS011;15623;53.986;11.676;2023-08-21T14:02:38;3.00;;;1.15;;
15218;SDS011;15623;53.986;11.676;2023-08-21T14:05:06;4.10;;;1.30;;
15218;SDS011;15623;53.986;11.676;2023-08-21T14:07:35;3.45;;;1.30;;
15218;SDS011;15623;53.986;11.676;2023-08-21T14:10:03;3.20;;;1.42;;
15218;SDS011;15623;53.986;11.676;2023-08-21T14:12:40;3.60;;;1.10;;
15218;SDS011;15623;53.986;11.676;2023-08-21T14:15:07;4.93;;;1.33;;
15218;SDS011;15623;53.986;11.676;2023-08-21T14:17:34;2.72;;;1.15;;
15218;SDS011;15623;53.986;11.676;2023-08-21T14:20:04;2.10;;;1.30;;
15218;SDS011;15623;53.986;11.676;2023-08-21T14:22:32;2.30;;;1.13;;
15218;SDS011;15623;53.986;11.676;2023-08-21T14:24:59;1.83;;;1.15;;
15218;SDS011;15623;53.986;11.676;2023-08-21T14:27:28;2.33;;;1.23;;
15218;SDS011;15623;53.986;11.676;2023-08-21T14:29:55;2.38;;;1.10;;
15218;SDS011;15623;53.986;11.676;2023-08-21T14:32:23;3.80;;;1.27;;
15218;SDS011;15623;53.986;11.676;2023-08-21T14:34:50;2.70;;;1.23;;
15218;SDS011;15623;53.986;11.676;2023-08-21T14:37:24;2.20;;;1.25;;
15218;SDS011;15623;53.986;11.676;2023-08-21T14:39:52;4.03;;;1.50;;
15218;SDS011;15623;53.986;11.676;2023-08-21T14:42:19;2.28;;;1.13;;
15218;SDS011;15623;53.986;11.676;2023-08-21T14:44:47;1.77;;;1.30;;
15218;SDS011;15623;53.986;11.676;2023-08-21T14:47:14;2.22;;;1.35;;
15218;SDS011;15623;53.986;11.676;2023-08-21T14:49:41;2.90;;;1.42;;
15218;SDS011;15623;53.986;11.676;2023-08-21T14:52:09;2.90;;;1.48;;
15218;SDS011;15623;53.986;11.676;2023-08-21T14:54:37;3.75;;;1.67;;
15218;SDS011;15623;53.986;11.676;2023-08-21T14:57:05;2.75;;;1.60;;
15218;SDS011;15623;53.986;11.676;2023-08-21T14:59:33;3.40;;;1.60;;